Evelyn Maersk — OXHV2 — position and weather

sailwx.info

Track history (hours):
 
Tides and Currents Weather Stations Pressure Air Temp Water Temp Dewpoint Dewpoint Depression Visibility Wind Speed Wind Dir Waves Ship Positions

Evelyn Maersk

Last reported at 2017-Jun-27 20:23 UTC. Time now 2017-Jun-27 20:47 UTC.
Position N 31°31' E 032°14'.

Length 398 m; draft 15.7 m.

Type: Ship (hazmat cat A). MMSI: 220496000.

Date/timePositionNaut miles runAvg speedWind from/ knotsBaromVisibWave heightAir tempDewpointWater temp
2017-Jun-27 20:23N 31°31' E 032°14'615.8
2017-Jun-27 20:00N 31°35' E 032°09'816.8
2017-Jun-27 19:31N 31°40' E 032°02'3217.5
2017-Jun-27 17:40N 31°53' E 031°27'618.0
2017-Jun-27 17:21N 31°55' E 031°21'618.1
2017-Jun-27 17:01N 31°57' E 031°14'5517.9
2017-Jun-27 13:55N 32°14' E 030°12'818.3
2017-Jun-27 13:30N 32°16' E 030°03'918.3
2017-Jun-27 13:00N 32°19' E 029°52'1118.3
2017-Jun-27 12:23N 32°22' E 029°40'1518.1
2017-Jun-27 11:33N 32°27' E 029°23'1518.0
2017-Jun-27 10:42N 32°31' E 029°05'417.7
2017-Jun-27 10:29N 32°32' E 029°01'917.8
2017-Jun-27 10:00N 32°35' E 028°51'5517.6
2017-Jun-27 06:52N 32°52' E 027°49'1112.7
2017-Jun-27 06:00N 32°54' E 027°36'11619.4 300 / 101011.010.8 24.024.025.0
2017-Jun-27 00:00N 33°30' E 025°24'9916.6 300 / 151010.510.8 24.822.325.8
2017-Jun-26 18:00N 34°00' E 023°30'14919.0 320 / 151011.810.8 25.022.225.0
2017-Jun-26 10:09N 34°46' E 020°38'318.6
2017-Jun-26 10:00N 34°47' E 020°35'7117.6
2017-Jun-26 06:00N 35°06' E 019°12'2920.4 290 / 121013.210.8 27.021.325.0
2017-Jun-26 04:36N 35°17' E 018°40'218.3
2017-Jun-26 04:29N 35°17' E 018°37'918.2
2017-Jun-26 03:59N 35°20' E 018°27'1618.2
2017-Jun-26 03:07N 35°25' E 018°08'318.1
2017-Jun-26 02:59N 35°25' E 018°05'918.1
2017-Jun-26 02:30N 35°28' E 017°55'918.1
2017-Jun-26 02:00N 35°31' E 017°44'1018.1
2017-Jun-26 01:26N 35°34' E 017°33'2218.3
2017-Jun-26 00:13N 35°41' E 017°06'418.4
2017-Jun-26 00:01N 35°42' E 017°02'294.8
2017-Jun-26 00:00N 35°42' E 017°00'815.9 270 / 161013.510.8 24.022.625.3
2017-Jun-25 23:30N 35°45' E 016°51'918.6
2017-Jun-25 23:00N 35°47' E 016°40'918.5
2017-Jun-25 22:30N 35°50' E 016°29'918.3
2017-Jun-25 22:00N 35°53' E 016°18'918.4
2017-Jun-25 21:30N 35°56' E 016°08'918.3
2017-Jun-25 21:00N 35°59' E 015°57'918.0
2017-Jun-25 20:30N 36°01' E 015°46'918.2
2017-Jun-25 20:00N 36°04' E 015°36'918.5
2017-Jun-25 19:30N 36°07' E 015°25'918.7
2017-Jun-25 19:00N 36°10' E 015°14'918.8
2017-Jun-25 18:30N 36°13' E 015°03'918.8
2017-Jun-25 18:00N 36°15' E 014°51'4261.2
2017-Jun-25 18:00N 36°12' E 014°54'1325.6 270 / 171013.710.8 26.020.225.0
2017-Jun-25 17:30N 36°18' E 014°40'918.5
2017-Jun-25 17:01N 36°21' E 014°30'918.3
2017-Jun-25 16:31N 36°23' E 014°19'918.2
2017-Jun-25 16:01N 36°26' E 014°08'918.1
2017-Jun-25 15:30N 36°28' E 013°57'918.0
2017-Jun-25 15:00N 36°32' E 013°47'918.0
2017-Jun-25 14:30N 36°35' E 013°36'1818.0
2017-Jun-25 13:30N 36°39' E 013°14'917.8
2017-Jun-25 13:00N 36°42' E 013°04'918.1
2017-Jun-25 12:30N 36°45' E 012°53'918.2
2017-Jun-25 12:00N 36°48' E 012°42'918.6
2017-Jun-25 11:30N 36°52' E 012°32'918.6
2017-Jun-25 11:01N 36°56' E 012°21'919.0
2017-Jun-25 10:30N 36°60' E 012°10'918.7
2017-Jun-25 10:00N 37°04' E 011°60'918.3
2017-Jun-25 09:30N 37°08' E 011°49'918.3
2017-Jun-25 09:00N 37°11' E 011°39'918.5
2017-Jun-25 08:31N 37°16' E 011°29'918.5
2017-Jun-25 08:00N 37°19' E 011°18'918.7
2017-Jun-25 07:30N 37°23' E 011°07'918.3
2017-Jun-25 07:00N 37°25' E 010°56'918.2
2017-Jun-25 06:30N 37°28' E 010°45'918.4
2017-Jun-25 06:00N 37°30' E 010°34'918.2
2017-Jun-25 05:30N 37°32' E 010°22'918.4
2017-Jun-25 05:00N 37°33' E 010°11'918.5
2017-Jun-25 04:30N 37°33' E 009°59'918.4
2017-Jun-25 04:00N 37°31' E 009°48'918.5
2017-Jun-25 03:30N 37°29' E 009°36'918.5
2017-Jun-25 03:00N 37°27' E 009°25'918.2
2017-Jun-25 02:30N 37°24' E 009°14'917.8
2017-Jun-25 02:00N 37°22' E 009°03'917.5
2017-Jun-25 01:31N 37°20' E 008°53'917.9
2017-Jun-25 01:00N 37°18' E 008°42'917.9
2017-Jun-25 00:30N 37°17' E 008°31'917.6
2017-Jun-25 00:00N 37°16' E 008°19'917.8
2017-Jun-24 23:30N 37°16' E 008°08'1717.7
2017-Jun-24 22:33N 37°17' E 007°47'117.7
2017-Jun-24 22:30N 37°17' E 007°46'4217.9
2017-Jun-24 20:09N 37°21' E 006°53'318.0
2017-Jun-24 20:00N 37°21' E 006°50'917.9
2017-Jun-24 19:30N 37°22' E 006°39'2118.0
2017-Jun-24 18:19N 37°23' E 006°12'917.7
2017-Jun-24 17:51N 37°24' E 006°02'617.6
2017-Jun-24 17:31N 37°24' E 005°54'1317.5
2017-Jun-24 16:48N 37°22' E 005°39'517.4
2017-Jun-24 16:30N 37°21' E 005°32'917.6
2017-Jun-24 16:00N 37°20' E 005°22'917.6
2017-Jun-24 15:30N 37°19' E 005°11'917.6
2017-Jun-24 15:00N 37°18' E 004°60'1817.6
2017-Jun-24 14:00N 37°15' E 004°38'917.5
2017-Jun-24 13:31N 37°14' E 004°27'917.6
2017-Jun-24 13:01N 37°13' E 004°16'917.7
2017-Jun-24 12:30N 37°11' E 004°05'917.6
2017-Jun-24 12:00N 37°09' E 003°54'3238.3
2017-Jun-24 12:00N 37°06' E 003°54'917.4 070 / 101017.910.8 27.022.123.8
2017-Jun-24 11:30N 37°07' E 003°43'917.4
2017-Jun-24 11:01N 37°06' E 003°33'917.5
2017-Jun-24 10:31N 37°05' E 003°22'917.5
2017-Jun-24 10:00N 37°04' E 003°11'917.5
2017-Jun-24 09:31N 37°02' E 003°00'917.5
2017-Jun-24 09:00N 37°01' E 002°49'917.5
2017-Jun-24 08:30N 36°59' E 002°38'917.5
2017-Jun-24 08:00N 36°58' E 002°28'917.4
2017-Jun-24 07:30N 36°57' E 002°17'917.3
2017-Jun-24 07:00N 36°56' E 002°06'917.2
2017-Jun-24 06:30N 36°54' E 001°56'917.1
2017-Jun-24 06:00N 36°53' E 001°45'817.1
2017-Jun-24 05:30N 36°51' E 001°35'817.0
2017-Jun-24 05:00N 36°49' E 001°24'917.2
2017-Jun-24 04:30N 36°48' E 001°14'917.2
2017-Jun-24 04:01N 36°46' E 001°03'917.5
2017-Jun-24 03:30N 36°45' E 000°52'917.5
2017-Jun-24 03:00N 36°44' E 000°42'917.6
2017-Jun-24 02:30N 36°42' E 000°31'917.7
2017-Jun-24 02:01N 36°41' E 000°20'917.8
2017-Jun-24 01:30N 36°39' E 000°09'917.9
2017-Jun-24 01:00N 36°38' W 000°02'917.9
2017-Jun-24 00:30N 36°37' W 000°13'917.5
2017-Jun-24 00:00N 36°36' W 000°24'917.3
2017-Jun-23 23:30N 36°35' W 000°35'917.4
2017-Jun-23 23:00N 36°34' W 000°45'1017.3
2017-Jun-23 22:26N 36°32' W 000°57'917.4
2017-Jun-23 21:56N 36°30' W 001°08'917.8
2017-Jun-23 21:26N 36°28' W 001°19'1317.8
2017-Jun-23 20:41N 36°26' W 001°35'317.7
2017-Jun-23 20:30N 36°26' W 001°39'1517.7
2017-Jun-23 19:37N 36°23' W 001°58'1418.0
2017-Jun-23 18:51N 36°21' W 002°15'12018.1
2017-Jun-23 12:15N 36°08' W 004°43'518.0
2017-Jun-23 12:00N 36°06' W 004°48'1112.3 200 / 91021.1 0.0 22.819.420.1
2017-Jun-23 11:59N 36°07' W 004°49'1518.7
2017-Jun-23 11:11N 36°06' W 005°07'318.5
2017-Jun-23 11:01N 36°05' W 005°11'816.8
2017-Jun-23 10:31N 36°05' W 005°21'5 9.9
2017-Jun-23 10:00N 36°09' W 005°25'1 2.1
2017-Jun-23 09:30N 36°09' W 005°26'0 0.2
2017-Jun-23 09:00N 36°09' W 005°26'0 0.0
2017-Jun-23 08:25N 36°09' W 005°26'0 0.0
2017-Jun-23 05:36N 36°09' W 005°26'0 0.0
2017-Jun-23 05:27N 36°09' W 005°26'0 0.0
2017-Jun-23 04:57N 36°09' W 005°26'0 0.0
2017-Jun-23 04:27N 36°09' W 005°26'0 0.0
2017-Jun-23 03:57N 36°09' W 005°26'0 0.0
2017-Jun-23 01:57N 36°09' W 005°26'0 0.0
2017-Jun-23 01:27N 36°09' W 005°26'0 0.0
2017-Jun-23 00:57N 36°09' W 005°26'0 0.0
2017-Jun-23 00:21N 36°09' W 005°26'0 0.0
2017-Jun-22 23:57N 36°09' W 005°26'0 0.0
2017-Jun-22 23:27N 36°09' W 005°26'0 0.0
2017-Jun-22 23:00N 36°09' W 005°26'0 0.0
2017-Jun-22 22:30N 36°09' W 005°26'0 0.0
2017-Jun-22 21:57N 36°09' W 005°26'0 0.0
2017-Jun-22 18:17N 36°09' W 005°26'0 0.0
2017-Jun-22 17:54N 36°09' W 005°26'0 0.0
2017-Jun-22 17:30N 36°09' W 005°26'0 0.0
2017-Jun-22 17:00N 36°09' W 005°26'0 0.0
2017-Jun-22 16:21N 36°09' W 005°26'0 0.0
2017-Jun-22 15:46N 36°09' W 005°26'0 0.0
2017-Jun-22 15:30N 36°09' W 005°26'0 0.0
2017-Jun-22 15:00N 36°09' W 005°26'0 0.0
2017-Jun-22 14:12N 36°09' W 005°26'0 0.0
2017-Jun-22 13:24N 36°09' W 005°26'0 0.0
2017-Jun-22 12:03N 36°09' W 005°26'0 0.1
2017-Jun-22 11:51N 36°09' W 005°26'0 0.0
2017-Jun-22 08:27N 36°09' W 005°26'0 0.0
2017-Jun-22 07:51N 36°09' W 005°26'0 0.0
2017-Jun-22 07:15N 36°09' W 005°26'0 0.0
2017-Jun-22 06:51N 36°09' W 005°26'0 0.0
2017-Jun-22 06:27N 36°09' W 005°26'0 0.0
2017-Jun-22 05:57N 36°09' W 005°26'0 0.0
2017-Jun-22 05:26N 36°09' W 005°26'1 1.8
2017-Jun-22 05:00N 36°09' W 005°25'3 5.4
2017-Jun-22 04:30N 36°07' W 005°23'4 7.5
2017-Jun-22 04:00N 36°04' W 005°21'5 9.4
2017-Jun-22 03:30N 35°59' W 005°22'1122.6
2017-Jun-22 03:00N 35°55' W 005°36'1122.5
2017-Jun-22 02:30N 35°53' W 005°49'1120.9
2017-Jun-22 01:59N 35°52' W 006°02'1121.1
2017-Jun-22 01:29N 35°54' W 006°15'6920.8
2017-Jun-21 22:10N 36°11' W 007°38'1720.9
2017-Jun-21 21:21N 36°15' W 007°59'720.9
2017-Jun-21 21:00N 36°17' W 008°07'1821.1
2017-Jun-21 20:09N 36°22' W 008°29'521.2
2017-Jun-21 19:54N 36°24' W 008°35'921.2
2017-Jun-21 19:29N 36°26' W 008°46'1021.3
2017-Jun-21 19:00N 36°29' W 008°58'1021.3
2017-Jun-21 18:30N 36°32' W 009°10'1120.6
2017-Jun-21 17:58N 36°38' W 009°22'1121.1
2017-Jun-21 17:28N 36°46' W 009°30'3120.8
2017-Jun-21 15:58N 37°16' W 009°43'3621.3
2017-Jun-21 14:17N 37°51' W 009°54'1721.6
2017-Jun-21 13:29N 38°07' W 009°58'1021.7
2017-Jun-21 13:00N 38°18' W 010°00'1121.3
2017-Jun-21 12:30N 38°28' W 010°03'1121.4
2017-Jun-21 12:00N 38°39' W 010°06'3184.6
2017-Jun-21 12:00N 38°36' W 010°06'1326.7 290 / 121016.810.8 22.517.220.9
2017-Jun-21 11:30N 38°49' W 010°06'1020.7
2017-Jun-21 11:00N 38°59' W 010°06'1020.5
2017-Jun-21 10:30N 39°10' W 010°05'1121.0
2017-Jun-21 10:00N 39°20' W 010°05'1021.1
2017-Jun-21 09:30N 39°31' W 010°05'19720.8
2017-Jun-21 00:00N 42°48' W 010°06'24620.5 290 / 121014.2 0.0 17.517.218.7
2017-Jun-20 12:00N 46°30' W 007°36'13521.6 320 / 141015.3 0.0 18.516.218.6
2017-Jun-20 05:43N 48°32' W 006°08'522.1
2017-Jun-20 05:29N 48°36' W 006°05'1222.2
2017-Jun-20 04:57N 48°46' W 005°55'1021.5
2017-Jun-20 04:30N 48°54' W 005°46'1121.5
2017-Jun-20 04:00N 48°59' W 005°33'1019.8
2017-Jun-20 03:30N 49°04' W 005°19'917.9
2017-Jun-20 03:00N 49°09' W 005°08'917.5
2017-Jun-20 02:30N 49°13' W 004°56'1218.9
2017-Jun-20 01:53N 49°18' W 004°40'920.3
2017-Jun-20 01:27N 49°23' W 004°28'920.2
2017-Jun-20 01:00N 49°28' W 004°17'1020.3
2017-Jun-20 00:30N 49°34' W 004°04'1020.5
2017-Jun-20 00:00N 49°40' W 003°52'1020.7
2017-Jun-19 23:30N 49°46' W 003°39'1121.1
2017-Jun-19 23:00N 49°52' W 003°25'1121.6
2017-Jun-19 22:30N 49°56' W 003°10'1122.0
2017-Jun-19 22:00N 50°00' W 002°54'1122.6
2017-Jun-19 21:30N 50°03' W 002°37'1123.0
2017-Jun-19 21:01N 50°06' W 002°19'1222.9
2017-Jun-19 20:28N 50°09' W 002°01'1722.4
2017-Jun-19 19:42N 50°14' W 001°35'421.8
2017-Jun-19 19:30N 50°15' W 001°28'1121.5
2017-Jun-19 19:00N 50°17' W 001°12'1020.8
2017-Jun-19 18:30N 50°20' W 000°56'1020.0
2017-Jun-19 18:00N 50°23' W 000°42'1019.6
2017-Jun-19 17:30N 50°26' W 000°27'1019.5
2017-Jun-19 17:00N 50°29' W 000°12'1019.4
2017-Jun-19 16:30N 50°32' E 000°03'1019.3
2017-Jun-19 16:00N 50°34' E 000°17'1019.4
2017-Jun-19 15:30N 50°37' E 000°32'1020.0
2017-Jun-19 15:00N 50°42' E 000°45'2121.1
2017-Jun-19 14:00N 50°56' E 001°11'1122.4
2017-Jun-19 13:30N 51°03' E 001°25'1122.7
2017-Jun-19 13:00N 51°10' E 001°39'1121.6
2017-Jun-19 12:30N 51°18' E 001°50'1020.5
2017-Jun-19 12:00N 51°27' E 001°59'382356.4
2017-Jun-19 12:00N 51°18' E 001°00'4695.9 050 / 101018.9 2.2 24.118.015.7
2017-Jun-19 11:30N 51°34' E 002°10'1019.8
2017-Jun-19 11:01N 51°41' E 002°21'1019.4
2017-Jun-19 10:30N 51°48' E 002°31'1019.3
2017-Jun-19 10:00N 51°55' E 002°43'1018.9
2017-Jun-19 09:27N 52°01' E 002°56'919.6
2017-Jun-19 09:00N 52°02' E 003°10'1223.9
2017-Jun-19 08:30N 52°03' E 003°30'611.6
2017-Jun-19 08:00N 52°03' E 003°39'713.3
2017-Jun-19 07:30N 52°03' E 003°50'4 7.3
2017-Jun-19 07:01N 52°02' E 003°56'612.0
2017-Jun-19 06:31N 51°59' E 004°04'1 2.9
2017-Jun-19 06:01N 51°58' E 004°03'0 0.9
2017-Jun-19 05:30N 51°57' E 004°03'0 0.0
2017-Jun-19 05:00N 51°57' E 004°03'0 0.0
2017-Jun-19 04:29N 51°57' E 004°03'0 0.0
2017-Jun-19 04:00N 51°57' E 004°03'0 0.0
2017-Jun-19 03:30N 51°57' E 004°03'0 0.0
2017-Jun-19 03:00N 51°57' E 004°03'0 0.0
2017-Jun-19 02:30N 51°57' E 004°03'0 0.0
2017-Jun-19 02:00N 51°57' E 004°03'0 0.0
2017-Jun-19 01:29N 51°57' E 004°03'0 0.0
2017-Jun-19 01:00N 51°57' E 004°03'0 0.0
2017-Jun-19 00:30N 51°57' E 004°03'0 0.0
2017-Jun-19 00:00N 51°57' E 004°03'0 0.0
2017-Jun-18 23:30N 51°57' E 004°03'0 0.0
2017-Jun-18 23:00N 51°57' E 004°03'0 0.0
2017-Jun-18 22:29N 51°57' E 004°03'0 0.0
2017-Jun-18 22:00N 51°57' E 004°03'0 0.0
2017-Jun-18 21:30N 51°57' E 004°03'0 0.0
2017-Jun-18 21:00N 51°57' E 004°03'0 0.0
2017-Jun-18 20:30N 51°57' E 004°03'0 0.0
2017-Jun-18 20:00N 51°57' E 004°03'0 0.0
2017-Jun-18 19:29N 51°57' E 004°03'0 0.0
2017-Jun-18 19:00N 51°57' E 004°03'0 0.0
2017-Jun-18 18:30N 51°57' E 004°03'0 0.0
2017-Jun-18 18:00N 51°57' E 004°03'0 0.0
2017-Jun-18 17:30N 51°57' E 004°03'0 0.0
2017-Jun-18 17:00N 51°57' E 004°03'0 0.0
2017-Jun-18 16:29N 51°57' E 004°03'0 0.0
2017-Jun-18 16:00N 51°57' E 004°03'0 0.0
2017-Jun-18 15:30N 51°57' E 004°03'0 0.0
2017-Jun-18 15:00N 51°57' E 004°03'0 0.0
2017-Jun-18 14:00N 51°57' E 004°03'0 0.0
2017-Jun-18 13:30N 51°57' E 004°03'0 0.0
2017-Jun-18 13:00N 51°57' E 004°03'0 0.0
2017-Jun-18 12:30N 51°57' E 004°03'0 0.0
2017-Jun-18 12:00N 51°57' E 004°03'0 0.0
2017-Jun-18 11:29N 51°57' E 004°03'0 0.0
2017-Jun-18 11:00N 51°57' E 004°03'0 0.0
2017-Jun-18 10:29N 51°57' E 004°03'0 0.0
2017-Jun-18 10:00N 51°57' E 004°03'0 0.0
2017-Jun-18 09:30N 51°57' E 004°03'0 0.0
2017-Jun-18 09:00N 51°57' E 004°03'0 0.0
2017-Jun-18 08:30N 51°57' E 004°03'0 0.0
2017-Jun-18 08:00N 51°57' E 004°03'0 0.0
2017-Jun-18 07:29N 51°57' E 004°03'0 0.0
2017-Jun-18 07:00N 51°57' E 004°03'0 0.0
2017-Jun-18 06:30N 51°57' E 004°03'0 0.0
2017-Jun-18 06:00N 51°57' E 004°03'0 0.0
2017-Jun-18 05:30N 51°57' E 004°03'0 0.0
2017-Jun-18 05:00N 51°57' E 004°03'1 1.6
2017-Jun-18 04:30N 51°58' E 004°04'1 2.1
2017-Jun-18 04:00N 51°58' E 004°05'4 7.1
2017-Jun-18 03:30N 51°60' E 004°00'510.7
2017-Jun-18 03:00N 51°60' E 003°51'510.5
2017-Jun-18 02:30N 51°59' E 003°43'510.8
2017-Jun-18 02:01N 51°57' E 003°35'611.5
2017-Jun-18 01:30N 51°54' E 003°28'1 1.0
2017-Jun-18 01:00N 51°53' E 003°27'0 0.1
2017-Jun-18 00:30N 51°53' E 003°27'0 0.2
2017-Jun-18 00:00N 51°53' E 003°27'0 0.1
2017-Jun-17 23:30N 51°53' E 003°27'0 0.1
2017-Jun-17 23:00N 51°53' E 003°27'0 0.1
2017-Jun-17 22:30N 51°53' E 003°28'0 0.0
2017-Jun-17 22:00N 51°53' E 003°28'0 0.0
2017-Jun-17 21:30N 51°53' E 003°28'0 0.0
2017-Jun-17 21:00N 51°53' E 003°28'0 0.0
2017-Jun-17 20:30N 51°53' E 003°28'  
Track history (hours):
 
Tides and Currents Weather Stations Pressure Air Temp Water Temp Dewpoint Dewpoint Depression Visibility Wind Speed Wind Dir Waves Ship Positions

Evelyn Maersk

Last reported at 2017-Jun-27 20:23 UTC. Time now 2017-Jun-27 20:47 UTC.
Position N 31°31' E 032°14'.

Length 398 m; draft 15.7 m.

Type: Ship (hazmat cat A). MMSI: 220496000.

Date/timePositionNaut miles runAvg speedWind from/ knotsBaromVisibWave heightAir tempDewpointWater temp
2017-Jun-27 20:23N 31°31' E 032°14'615.8
2017-Jun-27 20:00N 31°35' E 032°09'816.8
2017-Jun-27 19:31N 31°40' E 032°02'3217.5
2017-Jun-27 17:40N 31°53' E 031°27'618.0
2017-Jun-27 17:21N 31°55' E 031°21'618.1
2017-Jun-27 17:01N 31°57' E 031°14'5517.9
2017-Jun-27 13:55N 32°14' E 030°12'818.3
2017-Jun-27 13:30N 32°16' E 030°03'918.3
2017-Jun-27 13:00N 32°19' E 029°52'1118.3
2017-Jun-27 12:23N 32°22' E 029°40'1518.1
2017-Jun-27 11:33N 32°27' E 029°23'1518.0
2017-Jun-27 10:42N 32°31' E 029°05'417.7
2017-Jun-27 10:29N 32°32' E 029°01'917.8
2017-Jun-27 10:00N 32°35' E 028°51'5517.6
2017-Jun-27 06:52N 32°52' E 027°49'1112.7
2017-Jun-27 06:00N 32°54' E 027°36'11619.4 300 / 101011.010.8 24.024.025.0
2017-Jun-27 00:00N 33°30' E 025°24'9916.6 300 / 151010.510.8 24.822.325.8
2017-Jun-26 18:00N 34°00' E 023°30'14919.0 320 / 151011.810.8 25.022.225.0
2017-Jun-26 10:09N 34°46' E 020°38'318.6
2017-Jun-26 10:00N 34°47' E 020°35'7117.6
2017-Jun-26 06:00N 35°06' E 019°12'2920.4 290 / 121013.210.8 27.021.325.0
2017-Jun-26 04:36N 35°17' E 018°40'218.3
2017-Jun-26 04:29N 35°17' E 018°37'918.2
2017-Jun-26 03:59N 35°20' E 018°27'1618.2
2017-Jun-26 03:07N 35°25' E 018°08'318.1
2017-Jun-26 02:59N 35°25' E 018°05'918.1
2017-Jun-26 02:30N 35°28' E 017°55'918.1
2017-Jun-26 02:00N 35°31' E 017°44'1018.1
2017-Jun-26 01:26N 35°34' E 017°33'2218.3
2017-Jun-26 00:13N 35°41' E 017°06'418.4
2017-Jun-26 00:01N 35°42' E 017°02'294.8
2017-Jun-26 00:00N 35°42' E 017°00'815.9 270 / 161013.510.8 24.022.625.3
2017-Jun-25 23:30N 35°45' E 016°51'918.6
2017-Jun-25 23:00N 35°47' E 016°40'918.5
2017-Jun-25 22:30N 35°50' E 016°29'918.3
2017-Jun-25 22:00N 35°53' E 016°18'918.4
2017-Jun-25 21:30N 35°56' E 016°08'918.3
2017-Jun-25 21:00N 35°59' E 015°57'918.0
2017-Jun-25 20:30N 36°01' E 015°46'918.2
2017-Jun-25 20:00N 36°04' E 015°36'918.5
2017-Jun-25 19:30N 36°07' E 015°25'918.7
2017-Jun-25 19:00N 36°10' E 015°14'918.8
2017-Jun-25 18:30N 36°13' E 015°03'918.8
2017-Jun-25 18:00N 36°15' E 014°51'4261.2
2017-Jun-25 18:00N 36°12' E 014°54'1325.6 270 / 171013.710.8 26.020.225.0
2017-Jun-25 17:30N 36°18' E 014°40'918.5
2017-Jun-25 17:01N 36°21' E 014°30'918.3
2017-Jun-25 16:31N 36°23' E 014°19'918.2
2017-Jun-25 16:01N 36°26' E 014°08'918.1
2017-Jun-25 15:30N 36°28' E 013°57'918.0
2017-Jun-25 15:00N 36°32' E 013°47'918.0
2017-Jun-25 14:30N 36°35' E 013°36'1818.0
2017-Jun-25 13:30N 36°39' E 013°14'917.8
2017-Jun-25 13:00N 36°42' E 013°04'918.1
2017-Jun-25 12:30N 36°45' E 012°53'918.2
2017-Jun-25 12:00N 36°48' E 012°42'918.6
2017-Jun-25 11:30N 36°52' E 012°32'918.6
2017-Jun-25 11:01N 36°56' E 012°21'919.0
2017-Jun-25 10:30N 36°60' E 012°10'918.7
2017-Jun-25 10:00N 37°04' E 011°60'918.3
2017-Jun-25 09:30N 37°08' E 011°49'918.3
2017-Jun-25 09:00N 37°11' E 011°39'918.5
2017-Jun-25 08:31N 37°16' E 011°29'918.5
2017-Jun-25 08:00N 37°19' E 011°18'918.7
2017-Jun-25 07:30N 37°23' E 011°07'918.3
2017-Jun-25 07:00N 37°25' E 010°56'918.2
2017-Jun-25 06:30N 37°28' E 010°45'918.4
2017-Jun-25 06:00N 37°30' E 010°34'918.2
2017-Jun-25 05:30N 37°32' E 010°22'918.4
2017-Jun-25 05:00N 37°33' E 010°11'918.5
2017-Jun-25 04:30N 37°33' E 009°59'918.4
2017-Jun-25 04:00N 37°31' E 009°48'918.5
2017-Jun-25 03:30N 37°29' E 009°36'918.5
2017-Jun-25 03:00N 37°27' E 009°25'918.2
2017-Jun-25 02:30N 37°24' E 009°14'917.8
2017-Jun-25 02:00N 37°22' E 009°03'917.5
2017-Jun-25 01:31N 37°20' E 008°53'917.9
2017-Jun-25 01:00N 37°18' E 008°42'917.9
2017-Jun-25 00:30N 37°17' E 008°31'917.6
2017-Jun-25 00:00N 37°16' E 008°19'917.8
2017-Jun-24 23:30N 37°16' E 008°08'1717.7
2017-Jun-24 22:33N 37°17' E 007°47'117.7
2017-Jun-24 22:30N 37°17' E 007°46'4217.9
2017-Jun-24 20:09N 37°21' E 006°53'318.0
2017-Jun-24 20:00N 37°21' E 006°50'917.9
2017-Jun-24 19:30N 37°22' E 006°39'2118.0
2017-Jun-24 18:19N 37°23' E 006°12'917.7
2017-Jun-24 17:51N 37°24' E 006°02'617.6
2017-Jun-24 17:31N 37°24' E 005°54'1317.5
2017-Jun-24 16:48N 37°22' E 005°39'517.4
2017-Jun-24 16:30N 37°21' E 005°32'917.6
2017-Jun-24 16:00N 37°20' E 005°22'917.6
2017-Jun-24 15:30N 37°19' E 005°11'917.6
2017-Jun-24 15:00N 37°18' E 004°60'1817.6
2017-Jun-24 14:00N 37°15' E 004°38'917.5
2017-Jun-24 13:31N 37°14' E 004°27'917.6
2017-Jun-24 13:01N 37°13' E 004°16'917.7
2017-Jun-24 12:30N 37°11' E 004°05'917.6
2017-Jun-24 12:00N 37°09' E 003°54'3238.3
2017-Jun-24 12:00N 37°06' E 003°54'917.4 070 / 101017.910.8 27.022.123.8
2017-Jun-24 11:30N 37°07' E 003°43'917.4
2017-Jun-24 11:01N 37°06' E 003°33'917.5
2017-Jun-24 10:31N 37°05' E 003°22'917.5
2017-Jun-24 10:00N 37°04' E 003°11'917.5
2017-Jun-24 09:31N 37°02' E 003°00'917.5
2017-Jun-24 09:00N 37°01' E 002°49'917.5
2017-Jun-24 08:30N 36°59' E 002°38'917.5
2017-Jun-24 08:00N 36°58' E 002°28'917.4
2017-Jun-24 07:30N 36°57' E 002°17'917.3
2017-Jun-24 07:00N 36°56' E 002°06'917.2
2017-Jun-24 06:30N 36°54' E 001°56'917.1
2017-Jun-24 06:00N 36°53' E 001°45'817.1
2017-Jun-24 05:30N 36°51' E 001°35'817.0
2017-Jun-24 05:00N 36°49' E 001°24'917.2
2017-Jun-24 04:30N 36°48' E 001°14'917.2
2017-Jun-24 04:01N 36°46' E 001°03'917.5
2017-Jun-24 03:30N 36°45' E 000°52'917.5
2017-Jun-24 03:00N 36°44' E 000°42'917.6
2017-Jun-24 02:30N 36°42' E 000°31'917.7
2017-Jun-24 02:01N 36°41' E 000°20'917.8
2017-Jun-24 01:30N 36°39' E 000°09'917.9
2017-Jun-24 01:00N 36°38' W 000°02'917.9
2017-Jun-24 00:30N 36°37' W 000°13'917.5
2017-Jun-24 00:00N 36°36' W 000°24'917.3
2017-Jun-23 23:30N 36°35' W 000°35'917.4
2017-Jun-23 23:00N 36°34' W 000°45'1017.3
2017-Jun-23 22:26N 36°32' W 000°57'917.4
2017-Jun-23 21:56N 36°30' W 001°08'917.8
2017-Jun-23 21:26N 36°28' W 001°19'1317.8
2017-Jun-23 20:41N 36°26' W 001°35'317.7
2017-Jun-23 20:30N 36°26' W 001°39'1517.7
2017-Jun-23 19:37N 36°23' W 001°58'1418.0
2017-Jun-23 18:51N 36°21' W 002°15'12018.1
2017-Jun-23 12:15N 36°08' W 004°43'518.0
2017-Jun-23 12:00N 36°06' W 004°48'1112.3 200 / 91021.1 0.0 22.819.420.1
2017-Jun-23 11:59N 36°07' W 004°49'1518.7
2017-Jun-23 11:11N 36°06' W 005°07'318.5
2017-Jun-23 11:01N 36°05' W 005°11'816.8
2017-Jun-23 10:31N 36°05' W 005°21'5 9.9
2017-Jun-23 10:00N 36°09' W 005°25'1 2.1
2017-Jun-23 09:30N 36°09' W 005°26'0 0.2
2017-Jun-23 09:00N 36°09' W 005°26'0 0.0
2017-Jun-23 08:25N 36°09' W 005°26'0 0.0
2017-Jun-23 05:36N 36°09' W 005°26'0 0.0
2017-Jun-23 05:27N 36°09' W 005°26'0 0.0
2017-Jun-23 04:57N 36°09' W 005°26'0 0.0
2017-Jun-23 04:27N 36°09' W 005°26'0 0.0
2017-Jun-23 03:57N 36°09' W 005°26'0 0.0
2017-Jun-23 01:57N 36°09' W 005°26'0 0.0
2017-Jun-23 01:27N 36°09' W 005°26'0 0.0
2017-Jun-23 00:57N 36°09' W 005°26'0 0.0
2017-Jun-23 00:21N 36°09' W 005°26'0 0.0
2017-Jun-22 23:57N 36°09' W 005°26'0 0.0
2017-Jun-22 23:27N 36°09' W 005°26'0 0.0
2017-Jun-22 23:00N 36°09' W 005°26'0 0.0
2017-Jun-22 22:30N 36°09' W 005°26'0 0.0
2017-Jun-22 21:57N 36°09' W 005°26'0 0.0
2017-Jun-22 18:17N 36°09' W 005°26'0 0.0
2017-Jun-22 17:54N 36°09' W 005°26'0 0.0
2017-Jun-22 17:30N 36°09' W 005°26'0 0.0
2017-Jun-22 17:00N 36°09' W 005°26'0 0.0
2017-Jun-22 16:21N 36°09' W 005°26'0 0.0
2017-Jun-22 15:46N 36°09' W 005°26'0 0.0
2017-Jun-22 15:30N 36°09' W 005°26'0 0.0
2017-Jun-22 15:00N 36°09' W 005°26'0 0.0
2017-Jun-22 14:12N 36°09' W 005°26'0 0.0
2017-Jun-22 13:24N 36°09' W 005°26'0 0.0
2017-Jun-22 12:03N 36°09' W 005°26'0 0.1
2017-Jun-22 11:51N 36°09' W 005°26'0 0.0
2017-Jun-22 08:27N 36°09' W 005°26'0 0.0
2017-Jun-22 07:51N 36°09' W 005°26'0 0.0
2017-Jun-22 07:15N 36°09' W 005°26'0 0.0
2017-Jun-22 06:51N 36°09' W 005°26'0 0.0
2017-Jun-22 06:27N 36°09' W 005°26'0 0.0
2017-Jun-22 05:57N 36°09' W 005°26'0 0.0
2017-Jun-22 05:26N 36°09' W 005°26'1 1.8
2017-Jun-22 05:00N 36°09' W 005°25'3 5.4
2017-Jun-22 04:30N 36°07' W 005°23'4 7.5
2017-Jun-22 04:00N 36°04' W 005°21'5 9.4
2017-Jun-22 03:30N 35°59' W 005°22'1122.6
2017-Jun-22 03:00N 35°55' W 005°36'1122.5
2017-Jun-22 02:30N 35°53' W 005°49'1120.9
2017-Jun-22 01:59N 35°52' W 006°02'1121.1
2017-Jun-22 01:29N 35°54' W 006°15'6920.8
2017-Jun-21 22:10N 36°11' W 007°38'1720.9
2017-Jun-21 21:21N 36°15' W 007°59'720.9
2017-Jun-21 21:00N 36°17' W 008°07'1821.1
2017-Jun-21 20:09N 36°22' W 008°29'521.2
2017-Jun-21 19:54N 36°24' W 008°35'921.2
2017-Jun-21 19:29N 36°26' W 008°46'1021.3
2017-Jun-21 19:00N 36°29' W 008°58'1021.3
2017-Jun-21 18:30N 36°32' W 009°10'1120.6
2017-Jun-21 17:58N 36°38' W 009°22'1121.1
2017-Jun-21 17:28N 36°46' W 009°30'3120.8
2017-Jun-21 15:58N 37°16' W 009°43'3621.3
2017-Jun-21 14:17N 37°51' W 009°54'1721.6
2017-Jun-21 13:29N 38°07' W 009°58'1021.7
2017-Jun-21 13:00N 38°18' W 010°00'1121.3
2017-Jun-21 12:30N 38°28' W 010°03'1121.4
2017-Jun-21 12:00N 38°39' W 010°06'3184.6
2017-Jun-21 12:00N 38°36' W 010°06'1326.7 290 / 121016.810.8 22.517.220.9
2017-Jun-21 11:30N 38°49' W 010°06'1020.7
2017-Jun-21 11:00N 38°59' W 010°06'1020.5
2017-Jun-21 10:30N 39°10' W 010°05'1121.0
2017-Jun-21 10:00N 39°20' W 010°05'1021.1
2017-Jun-21 09:30N 39°31' W 010°05'19720.8
2017-Jun-21 00:00N 42°48' W 010°06'24620.5 290 / 121014.2 0.0 17.517.218.7
2017-Jun-20 12:00N 46°30' W 007°36'13521.6 320 / 141015.3 0.0 18.516.218.6
2017-Jun-20 05:43N 48°32' W 006°08'522.1
2017-Jun-20 05:29N 48°36' W 006°05'1222.2
2017-Jun-20 04:57N 48°46' W 005°55'1021.5
2017-Jun-20 04:30N 48°54' W 005°46'1121.5
2017-Jun-20 04:00N 48°59' W 005°33'1019.8
2017-Jun-20 03:30N 49°04' W 005°19'917.9
2017-Jun-20 03:00N 49°09' W 005°08'917.5
2017-Jun-20 02:30N 49°13' W 004°56'1218.9
2017-Jun-20 01:53N 49°18' W 004°40'920.3
2017-Jun-20 01:27N 49°23' W 004°28'920.2
2017-Jun-20 01:00N 49°28' W 004°17'1020.3
2017-Jun-20 00:30N 49°34' W 004°04'1020.5
2017-Jun-20 00:00N 49°40' W 003°52'1020.7
2017-Jun-19 23:30N 49°46' W 003°39'1121.1
2017-Jun-19 23:00N 49°52' W 003°25'1121.6
2017-Jun-19 22:30N 49°56' W 003°10'1122.0
2017-Jun-19 22:00N 50°00' W 002°54'1122.6
2017-Jun-19 21:30N 50°03' W 002°37'1123.0
2017-Jun-19 21:01N 50°06' W 002°19'1222.9
2017-Jun-19 20:28N 50°09' W 002°01'1722.4
2017-Jun-19 19:42N 50°14' W 001°35'421.8
2017-Jun-19 19:30N 50°15' W 001°28'1121.5
2017-Jun-19 19:00N 50°17' W 001°12'1020.8
2017-Jun-19 18:30N 50°20' W 000°56'1020.0
2017-Jun-19 18:00N 50°23' W 000°42'1019.6
2017-Jun-19 17:30N 50°26' W 000°27'1019.5
2017-Jun-19 17:00N 50°29' W 000°12'1019.4
2017-Jun-19 16:30N 50°32' E 000°03'1019.3
2017-Jun-19 16:00N 50°34' E 000°17'1019.4
2017-Jun-19 15:30N 50°37' E 000°32'1020.0
2017-Jun-19 15:00N 50°42' E 000°45'2121.1
2017-Jun-19 14:00N 50°56' E 001°11'1122.4
2017-Jun-19 13:30N 51°03' E 001°25'1122.7
2017-Jun-19 13:00N 51°10' E 001°39'1121.6
2017-Jun-19 12:30N 51°18' E 001°50'1020.5
2017-Jun-19 12:00N 51°27' E 001°59'382356.4
2017-Jun-19 12:00N 51°18' E 001°00'4695.9 050 / 101018.9 2.2 24.118.015.7
2017-Jun-19 11:30N 51°34' E 002°10'1019.8
2017-Jun-19 11:01N 51°41' E 002°21'1019.4
2017-Jun-19 10:30N 51°48' E 002°31'1019.3
2017-Jun-19 10:00N 51°55' E 002°43'1018.9
2017-Jun-19 09:27N 52°01' E 002°56'919.6
2017-Jun-19 09:00N 52°02' E 003°10'1223.9
2017-Jun-19 08:30N 52°03' E 003°30'611.6
2017-Jun-19 08:00N 52°03' E 003°39'713.3
2017-Jun-19 07:30N 52°03' E 003°50'4 7.3
2017-Jun-19 07:01N 52°02' E 003°56'612.0
2017-Jun-19 06:31N 51°59' E 004°04'1 2.9
2017-Jun-19 06:01N 51°58' E 004°03'0 0.9
2017-Jun-19 05:30N 51°57' E 004°03'0 0.0
2017-Jun-19 05:00N 51°57' E 004°03'0 0.0
2017-Jun-19 04:29N 51°57' E 004°03'0 0.0
2017-Jun-19 04:00N 51°57' E 004°03'0 0.0
2017-Jun-19 03:30N 51°57' E 004°03'0 0.0
2017-Jun-19 03:00N 51°57' E 004°03'0 0.0
2017-Jun-19 02:30N 51°57' E 004°03'0 0.0
2017-Jun-19 02:00N 51°57' E 004°03'0 0.0
2017-Jun-19 01:29N 51°57' E 004°03'0 0.0
2017-Jun-19 01:00N 51°57' E 004°03'0 0.0
2017-Jun-19 00:30N 51°57' E 004°03'0 0.0
2017-Jun-19 00:00N 51°57' E 004°03'0 0.0
2017-Jun-18 23:30N 51°57' E 004°03'0 0.0
2017-Jun-18 23:00N 51°57' E 004°03'0 0.0
2017-Jun-18 22:29N 51°57' E 004°03'0 0.0
2017-Jun-18 22:00N 51°57' E 004°03'0 0.0
2017-Jun-18 21:30N 51°57' E 004°03'0 0.0
2017-Jun-18 21:00N 51°57' E 004°03'0 0.0
2017-Jun-18 20:30N 51°57' E 004°03'0 0.0
2017-Jun-18 20:00N 51°57' E 004°03'0 0.0
2017-Jun-18 19:29N 51°57' E 004°03'0 0.0
2017-Jun-18 19:00N 51°57' E 004°03'0 0.0
2017-Jun-18 18:30N 51°57' E 004°03'0 0.0
2017-Jun-18 18:00N 51°57' E 004°03'0 0.0
2017-Jun-18 17:30N 51°57' E 004°03'0 0.0
2017-Jun-18 17:00N 51°57' E 004°03'0 0.0
2017-Jun-18 16:29N 51°57' E 004°03'0 0.0
2017-Jun-18 16:00N 51°57' E 004°03'0 0.0
2017-Jun-18 15:30N 51°57' E 004°03'0 0.0
2017-Jun-18 15:00N 51°57' E 004°03'0 0.0
2017-Jun-18 14:00N 51°57' E 004°03'0 0.0
2017-Jun-18 13:30N 51°57' E 004°03'0 0.0
2017-Jun-18 13:00N 51°57' E 004°03'0 0.0
2017-Jun-18 12:30N 51°57' E 004°03'0 0.0
2017-Jun-18 12:00N 51°57' E 004°03'0 0.0
2017-Jun-18 11:29N 51°57' E 004°03'0 0.0
2017-Jun-18 11:00N 51°57' E 004°03'0 0.0
2017-Jun-18 10:29N 51°57' E 004°03'0 0.0
2017-Jun-18 10:00N 51°57' E 004°03'0 0.0
2017-Jun-18 09:30N 51°57' E 004°03'0 0.0
2017-Jun-18 09:00N 51°57' E 004°03'0 0.0
2017-Jun-18 08:30N 51°57' E 004°03'0 0.0
2017-Jun-18 08:00N 51°57' E 004°03'0 0.0
2017-Jun-18 07:29N 51°57' E 004°03'0 0.0
2017-Jun-18 07:00N 51°57' E 004°03'0 0.0
2017-Jun-18 06:30N 51°57' E 004°03'0 0.0
2017-Jun-18 06:00N 51°57' E 004°03'0 0.0
2017-Jun-18 05:30N 51°57' E 004°03'0 0.0
2017-Jun-18 05:00N 51°57' E 004°03'1 1.6
2017-Jun-18 04:30N 51°58' E 004°04'1 2.1
2017-Jun-18 04:00N 51°58' E 004°05'4 7.1
2017-Jun-18 03:30N 51°60' E 004°00'510.7
2017-Jun-18 03:00N 51°60' E 003°51'510.5
2017-Jun-18 02:30N 51°59' E 003°43'510.8
2017-Jun-18 02:01N 51°57' E 003°35'611.5
2017-Jun-18 01:30N 51°54' E 003°28'1 1.0
2017-Jun-18 01:00N 51°53' E 003°27'0 0.1
2017-Jun-18 00:30N 51°53' E 003°27'0 0.2
2017-Jun-18 00:00N 51°53' E 003°27'0 0.1
2017-Jun-17 23:30N 51°53' E 003°27'0 0.1
2017-Jun-17 23:00N 51°53' E 003°27'0 0.1
2017-Jun-17 22:30N 51°53' E 003°28'0 0.0
2017-Jun-17 22:00N 51°53' E 003°28'0 0.0
2017-Jun-17 21:30N 51°53' E 003°28'0 0.0
2017-Jun-17 21:00N 51°53' E 003°28'0 0.0
2017-Jun-17 20:30N 51°53' E 003°28'  

Dump ship's entire track history